createdAt,value
2022-12-13T00:00:46.964Z,15.27
2022-12-13T00:03:13.448Z,14.45
2022-12-13T00:05:44.434Z,16.25
2022-12-13T00:10:37.353Z,14.90
2022-12-13T00:13:04.559Z,17.20
2022-12-13T00:15:31.404Z,16.88
2022-12-13T00:17:57.884Z,17.42
2022-12-13T00:20:24.360Z,18.45
2022-12-13T00:22:52.232Z,19.25
2022-12-13T00:25:21.379Z,19.27
2022-12-13T00:27:47.918Z,19.83
2022-12-13T00:30:14.499Z,19.80
2022-12-13T00:32:40.991Z,18.98
2022-12-13T00:35:07.741Z,18.67
2022-12-13T00:37:34.229Z,20.42
2022-12-13T00:40:00.762Z,21.27
2022-12-13T00:42:27.290Z,20.00
2022-12-13T00:44:53.848Z,20.48
2022-12-13T00:47:22.331Z,20.50
2022-12-13T00:49:48.936Z,20.70
2022-12-13T00:52:15.506Z,20.80
2022-12-13T00:54:41.999Z,20.42
2022-12-13T00:57:08.482Z,21.45
2022-12-13T00:59:35.047Z,22.45
2022-12-13T01:02:02.700Z,22.73
2022-12-13T01:04:29.213Z,21.25
2022-12-13T01:06:55.737Z,21.15
2022-12-13T01:09:27.284Z,19.98
2022-12-13T01:12:02.547Z,19.42
2022-12-13T01:14:29.317Z,21.08
2022-12-13T01:16:55.968Z,22.15
2022-12-13T01:19:26.962Z,20.33
2022-12-13T01:24:26.506Z,21.25
2022-12-13T01:26:56.927Z,20.20
2022-12-13T01:29:25.994Z,20.38
2022-12-13T01:31:53.073Z,20.40
2022-12-13T01:34:20.773Z,20.85
2022-12-13T01:36:48.560Z,19.63
2022-12-13T01:39:17.812Z,20.83
2022-12-13T01:41:45.927Z,19.90
2022-12-13T01:44:49.835Z,17.85
2022-12-13T01:47:19.445Z,18.50
2022-12-13T01:49:46.081Z,16.55
2022-12-13T01:52:13.896Z,17.33
2022-12-13T01:54:46.671Z,17.73
2022-12-13T01:57:15.978Z,16.60
2022-12-13T01:59:43.137Z,17.05
2022-12-13T02:02:12.135Z,17.08
2022-12-13T02:05:04.388Z,16.08
2022-12-13T02:07:33.272Z,15.98
2022-12-13T02:10:01.443Z,17.02
2022-12-13T02:12:30.805Z,16.80
2022-12-13T02:15:00.875Z,16.90
2022-12-13T02:17:53.174Z,17.45
2022-12-13T02:20:36.488Z,17.52
2022-12-13T02:23:24.643Z,17.95
2022-12-13T02:25:57.105Z,17.30
2022-12-13T02:28:33.670Z,20.02
2022-12-13T02:31:08.848Z,18.02
2022-12-13T02:33:52.229Z,19.60
2022-12-13T02:36:40.184Z,18.85
2022-12-13T02:39:29.923Z,18.48
2022-12-13T02:42:41.364Z,18.48
2022-12-13T02:45:20.399Z,18.00
2022-12-13T02:47:47.671Z,18.77
2022-12-13T02:50:15.056Z,17.98
2022-12-13T02:52:46.399Z,19.65
2022-12-13T02:55:15.216Z,17.73
2022-12-13T02:57:44.789Z,18.08
2022-12-13T03:00:11.679Z,17.92
2022-12-13T03:03:18.731Z,18.33
2022-12-13T03:06:33.504Z,18.35
2022-12-13T03:09:37.336Z,17.90
2022-12-13T03:12:37.661Z,17.90
2022-12-13T03:15:38.635Z,18.42
2022-12-13T03:18:15.566Z,17.33
2022-12-13T03:20:54.389Z,18.75
2022-12-13T03:23:21.379Z,17.77
2022-12-13T03:25:50.151Z,17.75
2022-12-13T03:28:16.728Z,17.77
2022-12-13T03:30:43.223Z,17.02
2022-12-13T03:33:09.688Z,17.50
2022-12-13T03:35:44.979Z,16.45
2022-12-13T03:38:21.260Z,17.23
2022-12-13T03:40:51.295Z,16.60
2022-12-13T03:43:22.187Z,17.85
2022-12-13T03:45:50.683Z,17.77
2022-12-13T03:48:22.433Z,17.48
2022-12-13T03:50:50.754Z,17.95
2022-12-13T03:53:22.662Z,18.95
2022-12-13T03:55:58.613Z,16.88
2022-12-13T03:58:27.550Z,17.25
2022-12-13T04:01:04.269Z,17.15
2022-12-13T04:03:30.742Z,17.38
2022-12-13T04:05:57.240Z,17.58
2022-12-13T04:08:23.779Z,18.13
2022-12-13T04:10:50.312Z,17.50
2022-12-13T04:16:02.125Z,17.23
2022-12-13T04:18:28.688Z,16.88
2022-12-13T04:20:55.285Z,17.00
2022-12-13T04:23:21.779Z,16.50
2022-12-13T04:25:48.297Z,16.13
2022-12-13T04:28:22.173Z,15.13
2022-12-13T04:30:53.073Z,16.52
2022-12-13T04:33:21.735Z,16.60
2022-12-13T04:35:48.704Z,15.38
2022-12-13T04:38:15.522Z,15.02
2022-12-13T04:40:42.165Z,15.38
2022-12-13T04:43:08.794Z,16.38
2022-12-13T04:45:35.408Z,15.63
2022-12-13T04:48:02.122Z,15.15
2022-12-13T04:50:31.954Z,14.95
2022-12-13T04:52:58.613Z,15.25
2022-12-13T04:55:25.138Z,15.93
2022-12-13T04:57:51.709Z,15.23
2022-12-13T05:00:18.371Z,14.20
2022-12-13T05:02:44.996Z,14.38
2022-12-13T05:05:11.735Z,15.02
2022-12-13T05:07:42.416Z,13.75
2022-12-13T05:10:10.645Z,14.23
2022-12-13T05:12:37.625Z,15.10
2022-12-13T05:15:04.851Z,14.80
2022-12-13T05:17:31.810Z,15.57
2022-12-13T05:19:58.388Z,15.40
2022-12-13T05:22:25.618Z,14.93
2022-12-13T05:24:56.161Z,14.85
2022-12-13T05:28:28.631Z,13.95
2022-12-13T05:30:58.348Z,14.40
2022-12-13T05:33:25.597Z,16.08
2022-12-13T05:35:56.318Z,14.68
2022-12-13T05:38:26.091Z,15.38
2022-12-13T05:40:52.654Z,14.40
2022-12-13T05:43:21.197Z,14.60
2022-12-13T05:45:48.416Z,15.98
2022-12-13T05:48:14.940Z,15.15
2022-12-13T05:50:51.233Z,15.32
2022-12-13T05:53:30.635Z,15.15
2022-12-13T05:56:01.262Z,15.25
2022-12-13T05:58:27.910Z,14.43
2022-12-13T06:01:10.479Z,16.25
2022-12-13T06:03:37.306Z,16.77
2022-12-13T06:06:05.080Z,16.65
2022-12-13T06:08:32.280Z,15.13
2022-12-13T06:11:10.931Z,16.00
2022-12-13T06:13:42.888Z,17.70
2022-12-13T06:16:23.172Z,17.08
2022-12-13T06:19:01.395Z,17.88
2022-12-13T06:21:44.073Z,18.25
2022-12-13T06:24:14.241Z,18.13
2022-12-13T06:26:40.821Z,18.83
2022-12-13T06:29:07.351Z,18.42
2022-12-13T06:31:33.870Z,19.42
2022-12-13T06:34:13.814Z,18.38
2022-12-13T06:36:42.464Z,19.77
2022-12-13T06:39:09.019Z,19.17
2022-12-13T06:41:36.423Z,18.83
2022-12-13T06:44:03.031Z,20.10
2022-12-13T06:46:29.651Z,19.13
2022-12-13T06:48:57.210Z,18.83
2022-12-13T06:51:32.292Z,19.77
2022-12-13T06:54:00.820Z,18.88
2022-12-13T06:56:27.759Z,18.50
2022-12-13T06:58:54.340Z,19.80
2022-12-13T07:01:28.275Z,19.75
2022-12-13T07:04:04.074Z,18.83
2022-12-13T07:06:30.618Z,18.85
2022-12-13T07:08:58.028Z,18.98
2022-12-13T07:11:30.101Z,19.52
2022-12-13T07:13:56.926Z,19.75
2022-12-13T07:16:24.225Z,20.15
2022-12-13T07:19:01.002Z,19.52
2022-12-13T07:21:28.946Z,19.83
2022-12-13T07:23:55.671Z,20.13
2022-12-13T07:26:22.666Z,21.42
2022-12-13T07:28:54.700Z,20.40
2022-12-13T07:31:22.812Z,20.40
2022-12-13T07:33:49.731Z,20.58
2022-12-13T07:36:18.750Z,19.60
2022-12-13T07:38:56.802Z,21.27
2022-12-13T07:41:27.382Z,21.02
2022-12-13T07:43:55.807Z,21.85
2022-12-13T07:46:31.987Z,21.70
2022-12-13T07:49:02.813Z,19.20
2022-12-13T07:51:29.399Z,21.20
2022-12-13T07:53:55.943Z,19.73
2022-12-13T07:56:22.621Z,19.98
2022-12-13T07:58:49.205Z,19.42
2022-12-13T08:01:15.807Z,19.42
2022-12-13T08:03:42.352Z,20.60
2022-12-13T08:06:11.332Z,21.10
2022-12-13T08:08:38.586Z,21.10
2022-12-13T08:11:07.715Z,20.60
2022-12-13T08:13:34.862Z,19.50
2022-12-13T08:16:03.070Z,20.13
2022-12-13T08:18:31.345Z,19.05
2022-12-13T08:21:24.006Z,19.95
2022-12-13T08:23:52.470Z,19.85
2022-12-13T08:26:19.021Z,18.67
2022-12-13T08:28:45.542Z,19.42
2022-12-13T08:31:13.248Z,19.10
2022-12-13T08:33:45.566Z,18.85
2022-12-13T08:36:15.760Z,20.33
2022-12-13T08:38:42.872Z,18.13
2022-12-13T08:41:09.687Z,20.55
2022-12-13T08:43:36.618Z,19.30
2022-12-13T08:46:03.568Z,16.27
2022-12-13T08:48:30.371Z,17.23
2022-12-13T08:51:05.527Z,18.10
2022-12-13T08:53:38.322Z,17.58
2022-12-13T08:56:11.067Z,16.23
2022-12-13T08:58:38.596Z,16.10
2022-12-13T09:01:07.007Z,16.38
2022-12-13T09:03:33.681Z,17.45
2022-12-13T09:06:12.142Z,16.40
2022-12-13T09:08:39.063Z,17.65
2022-12-13T09:11:10.461Z,17.23
2022-12-13T09:13:47.832Z,16.23
2022-12-13T09:16:24.517Z,17.27
2022-12-13T09:18:55.068Z,15.65
2022-12-13T09:21:31.697Z,14.98
2022-12-13T09:24:01.608Z,14.98
2022-12-13T09:26:28.691Z,19.60
2022-12-13T09:28:55.320Z,16.30
2022-12-13T09:31:21.961Z,15.73
2022-12-13T09:33:48.738Z,14.73
2022-12-13T09:36:18.026Z,17.48
2022-12-13T09:38:45.074Z,16.13
2022-12-13T09:41:28.541Z,29.13
2022-12-13T09:44:01.146Z,21.58
2022-12-13T09:46:34.947Z,18.17
2022-12-13T09:49:35.088Z,16.05
2022-12-13T09:52:11.074Z,16.98
2022-12-13T09:54:47.886Z,16.05
2022-12-13T09:57:32.302Z,18.02
2022-12-13T10:00:08.479Z,16.02
2022-12-13T10:02:44.264Z,15.65
2022-12-13T10:05:34.387Z,15.40
2022-12-13T10:08:27.806Z,14.43
2022-12-13T10:10:54.430Z,16.67
2022-12-13T10:13:38.405Z,16.63
2022-12-13T10:16:11.100Z,16.10
2022-12-13T10:18:39.955Z,15.75
2022-12-13T10:21:19.731Z,15.93
2022-12-13T10:24:23.601Z,14.52
2022-12-13T10:26:37.144Z,15.32
2022-12-13T10:29:04.950Z,15.73
2022-12-13T10:31:39.205Z,14.63
2022-12-13T10:34:05.829Z,13.82
2022-12-13T10:36:38.961Z,14.40
2022-12-13T10:39:05.745Z,14.13
2022-12-13T10:41:36.361Z,14.60
2022-12-13T10:44:11.845Z,14.48
2022-12-13T10:46:53.582Z,14.43
2022-12-13T10:49:23.304Z,13.93
2022-12-13T10:51:51.977Z,14.50
2022-12-13T10:54:38.702Z,13.48
2022-12-13T10:57:14.899Z,15.85
2022-12-13T10:59:41.797Z,14.40
2022-12-13T11:02:30.597Z,14.68
2022-12-13T11:04:58.496Z,14.35
2022-12-13T11:07:32.684Z,13.77
2022-12-13T11:10:28.474Z,14.43
2022-12-13T11:13:03.741Z,13.57
2022-12-13T11:15:32.416Z,15.13
2022-12-13T11:17:59.516Z,14.25
2022-12-13T11:20:27.640Z,13.80
2022-12-13T11:23:14.514Z,16.67
2022-12-13T11:25:42.822Z,13.13
2022-12-13T11:28:37.474Z,14.57
2022-12-13T11:31:19.402Z,13.32
2022-12-13T11:34:08.325Z,13.80
2022-12-13T11:36:53.663Z,13.10
2022-12-13T11:39:32.360Z,11.90
2022-12-13T11:42:18.133Z,13.32
2022-12-13T11:45:11.578Z,11.52
2022-12-13T11:48:00.586Z,11.65
2022-12-13T11:50:37.728Z,11.00
2022-12-13T11:53:23.471Z,11.05
2022-12-13T11:56:17.596Z,11.02
2022-12-13T11:59:04.983Z,11.73
2022-12-13T12:01:53.254Z,11.55
2022-12-13T12:04:27.525Z,12.98
2022-12-13T12:07:12.171Z,11.45
2022-12-13T12:09:51.667Z,12.48
2022-12-13T12:12:30.417Z,15.10
2022-12-13T12:15:05.173Z,11.93
2022-12-13T12:17:42.603Z,11.25
2022-12-13T12:20:13.111Z,11.98
2022-12-13T12:22:48.888Z,12.20
2022-12-13T12:25:16.752Z,13.18
2022-12-13T12:28:07.162Z,12.65
2022-12-13T12:30:48.800Z,12.93
2022-12-13T12:33:27.554Z,12.32
2022-12-13T12:36:25.706Z,12.65
2022-12-13T12:39:16.353Z,13.00
2022-12-13T12:42:40.124Z,14.02
2022-12-13T12:45:56.888Z,11.55
2022-12-13T12:49:02.705Z,12.75
2022-12-13T12:51:52.097Z,12.70
2022-12-13T12:54:44.239Z,12.55
2022-12-13T12:57:26.030Z,12.30
2022-12-13T13:00:19.943Z,13.07
2022-12-13T13:03:23.016Z,13.05
2022-12-13T13:06:03.118Z,13.45
2022-12-13T13:08:43.116Z,13.35
2022-12-13T13:11:24.875Z,13.82
2022-12-13T13:14:01.731Z,14.48
2022-12-13T13:16:41.130Z,13.50
2022-12-13T13:19:10.841Z,12.07
2022-12-13T13:21:52.202Z,12.85
2022-12-13T13:24:21.744Z,12.75
2022-12-13T13:26:56.603Z,12.73
2022-12-13T13:29:28.995Z,12.45
2022-12-13T13:32:07.621Z,12.40
2022-12-13T13:35:00.576Z,11.80
2022-12-13T13:37:29.527Z,13.57
2022-12-13T13:40:30.953Z,12.20
2022-12-13T13:43:05.287Z,11.90
2022-12-13T13:46:13.128Z,12.65
2022-12-13T13:49:08.910Z,12.15
2022-12-13T13:55:00.879Z,12.45
2022-12-13T13:58:10.014Z,12.23
2022-12-13T14:01:25.202Z,13.88
2022-12-13T14:04:10.357Z,12.38
2022-12-13T14:06:52.147Z,12.32
2022-12-13T14:09:31.873Z,13.38
2022-12-13T14:12:34.179Z,14.18
2022-12-13T14:15:28.553Z,14.82
2022-12-13T14:18:27.355Z,13.85
2022-12-13T14:21:15.677Z,15.02
2022-12-13T14:23:55.746Z,14.93
2022-12-13T14:26:37.046Z,13.50
2022-12-13T14:29:11.913Z,15.15
2022-12-13T14:31:49.771Z,13.82
2022-12-13T14:34:27.949Z,14.30
2022-12-13T14:36:59.747Z,14.90
2022-12-13T14:39:26.655Z,14.25
2022-12-13T14:41:57.162Z,14.38
2022-12-13T14:44:31.372Z,14.75
2022-12-13T14:47:16.392Z,14.63
2022-12-13T14:49:49.319Z,14.85
2022-12-13T14:52:27.788Z,15.27
2022-12-13T14:55:00.135Z,16.75
2022-12-13T14:57:29.228Z,15.75
2022-12-13T14:59:57.665Z,15.68
2022-12-13T15:02:30.626Z,15.63
2022-12-13T15:05:04.032Z,15.70
2022-12-13T15:07:38.554Z,16.60
2022-12-13T15:10:21.079Z,17.02
2022-12-13T15:12:48.755Z,17.35
2022-12-13T15:15:23.229Z,17.13
2022-12-13T15:17:49.760Z,16.33
2022-12-13T15:20:28.661Z,16.42
2022-12-13T15:25:59.825Z,18.60
2022-12-13T15:28:29.317Z,18.85
2022-12-13T15:30:58.295Z,18.98
2022-12-13T15:33:33.144Z,18.42
2022-12-13T15:36:07.729Z,19.48
2022-12-13T15:38:37.139Z,19.45
2022-12-13T15:41:04.012Z,18.60
2022-12-13T15:43:43.928Z,17.55
2022-12-13T15:46:10.804Z,18.27
2022-12-13T15:48:48.891Z,18.58
2022-12-13T15:51:29.671Z,18.33
2022-12-13T15:54:21.659Z,20.98
2022-12-13T15:57:05.483Z,18.75
2022-12-13T15:59:34.463Z,18.20
2022-12-13T16:02:01.868Z,18.75
2022-12-13T16:04:32.866Z,19.58
2022-12-13T16:09:29.442Z,19.10
2022-12-13T16:11:57.599Z,18.83
2022-12-13T16:14:30.767Z,20.40
2022-12-13T16:17:08.603Z,20.27
2022-12-13T16:19:35.670Z,21.75
2022-12-13T16:22:02.236Z,21.65
2022-12-13T16:24:35.187Z,21.92
2022-12-13T16:27:01.674Z,20.83
2022-12-13T16:29:36.033Z,21.60
2022-12-13T16:32:08.495Z,22.35
2022-12-13T16:34:36.217Z,22.20
2022-12-13T16:37:03.155Z,22.48
2022-12-13T16:39:35.339Z,23.05
2022-12-13T16:42:01.860Z,22.88
2022-12-13T16:44:36.273Z,22.75
2022-12-13T16:47:17.047Z,23.33
2022-12-13T16:49:46.958Z,22.15
2022-12-13T16:52:13.465Z,23.13
2022-12-13T16:54:39.963Z,22.73
2022-12-13T16:57:06.465Z,23.98
2022-12-13T16:59:33.128Z,24.02
2022-12-13T17:01:59.745Z,23.30
2022-12-13T17:04:27.293Z,23.60
2022-12-13T17:06:54.537Z,23.58
2022-12-13T17:09:21.247Z,24.17
2022-12-13T17:11:47.812Z,24.27
2022-12-13T17:14:14.609Z,23.80
2022-12-13T17:16:41.248Z,24.75
2022-12-13T17:19:09.000Z,23.77
2022-12-13T17:21:35.463Z,23.83
2022-12-13T17:24:03.080Z,23.48
2022-12-13T17:26:30.390Z,22.77
2022-12-13T17:28:56.953Z,22.20
2022-12-13T17:31:23.623Z,23.13
2022-12-13T17:33:50.191Z,22.42
2022-12-13T17:36:16.968Z,20.30
2022-12-13T17:38:45.608Z,22.27
2022-12-13T17:41:13.418Z,21.10
2022-12-13T17:43:40.593Z,20.63
2022-12-13T17:46:10.473Z,20.50
2022-12-13T17:48:40.782Z,21.98
2022-12-13T17:53:39.286Z,21.10
2022-12-13T17:56:07.758Z,20.98
2022-12-13T17:58:35.305Z,23.15
2022-12-13T18:01:16.536Z,21.30
2022-12-13T18:03:43.604Z,21.30
2022-12-13T18:06:10.116Z,21.92
2022-12-13T18:08:38.865Z,20.70
2022-12-13T18:13:54.955Z,22.17
2022-12-13T18:16:23.340Z,21.52
2022-12-13T18:18:55.047Z,23.48
2022-12-13T18:21:23.507Z,20.83
2022-12-13T18:23:55.828Z,23.60
2022-12-13T18:26:23.808Z,23.83
2022-12-13T18:28:50.376Z,21.80
2022-12-13T18:31:19.205Z,22.63
2022-12-13T18:33:47.851Z,24.17
2022-12-13T18:36:14.565Z,25.77
2022-12-13T18:38:44.995Z,22.00
2022-12-13T18:41:17.246Z,22.87
2022-12-13T18:43:44.545Z,24.75
2022-12-13T18:46:12.042Z,25.30
2022-12-13T18:48:38.853Z,22.40
2022-12-13T18:51:07.635Z,23.33
2022-12-13T18:53:35.291Z,23.88
2022-12-13T18:56:07.437Z,24.48
2022-12-13T18:58:35.859Z,24.15
2022-12-13T19:01:03.596Z,23.45
2022-12-13T19:03:31.060Z,22.77
2022-12-13T19:05:58.942Z,21.30
2022-12-13T19:08:26.444Z,23.83
2022-12-13T19:10:54.333Z,23.92
2022-12-13T19:13:22.980Z,25.17
2022-12-13T19:15:49.926Z,22.98
2022-12-13T19:18:16.547Z,24.65
2022-12-13T19:20:47.964Z,26.70
2022-12-13T19:23:15.060Z,26.70
2022-12-13T19:25:41.941Z,26.83
2022-12-13T19:28:10.180Z,26.85
2022-12-13T19:30:37.187Z,23.80
2022-12-13T19:33:04.843Z,24.08
2022-12-13T19:35:31.594Z,24.75
2022-12-13T19:37:58.097Z,25.88
2022-12-13T19:40:24.582Z,24.83
2022-12-13T19:42:51.086Z,26.65
2022-12-13T19:45:17.792Z,24.98
2022-12-13T19:47:48.702Z,25.10
2022-12-13T19:50:15.746Z,26.50
2022-12-13T19:52:42.389Z,27.13
2022-12-13T19:55:09.001Z,26.63
2022-12-13T19:57:35.659Z,25.65
2022-12-13T20:00:02.350Z,27.40
2022-12-13T20:02:32.526Z,24.80
2022-12-13T20:04:59.841Z,22.80
2022-12-13T20:07:26.685Z,24.35
2022-12-13T20:09:53.781Z,26.88
2022-12-13T20:12:20.840Z,23.98
2022-12-13T20:14:47.400Z,25.55
2022-12-13T20:17:13.951Z,24.02
2022-12-13T20:19:40.404Z,27.08
2022-12-13T20:22:07.213Z,27.85
2022-12-13T20:24:33.791Z,26.92
2022-12-13T20:27:00.312Z,24.70
2022-12-13T20:29:26.751Z,25.63
2022-12-13T20:31:54.124Z,25.20
2022-12-13T20:34:20.641Z,23.98
2022-12-13T20:36:47.181Z,24.90
2022-12-13T20:39:15.082Z,25.27
2022-12-13T20:41:41.616Z,24.02
2022-12-13T20:44:09.137Z,26.65
2022-12-13T20:46:36.593Z,23.98
2022-12-13T20:49:05.555Z,24.70
2022-12-13T20:51:33.369Z,25.40
2022-12-13T20:54:00.068Z,24.25
2022-12-13T20:56:28.819Z,26.17
2022-12-13T20:58:55.568Z,24.83
2022-12-13T21:01:27.675Z,26.90
2022-12-13T21:03:55.372Z,23.63
2022-12-13T21:06:22.365Z,25.52
2022-12-13T21:08:51.399Z,26.27
2022-12-13T21:11:26.024Z,23.80
2022-12-13T21:13:54.449Z,25.52
2022-12-13T21:16:22.118Z,25.60
2022-12-13T21:18:48.720Z,25.95
2022-12-13T21:21:15.781Z,25.67
2022-12-13T21:23:42.263Z,25.50
2022-12-13T21:26:09.434Z,25.58
2022-12-13T21:28:36.310Z,25.83
2022-12-13T21:31:08.299Z,25.83
2022-12-13T21:33:36.022Z,26.15
2022-12-13T21:36:13.789Z,27.77
2022-12-13T21:38:40.340Z,24.15
2022-12-13T21:41:08.282Z,24.98
2022-12-13T21:43:38.923Z,25.60
2022-12-13T21:46:13.805Z,25.27
2022-12-13T21:48:41.670Z,23.90
2022-12-13T21:51:10.441Z,24.95
2022-12-13T21:53:37.446Z,26.45
2022-12-13T21:56:26.394Z,24.88
2022-12-13T21:59:11.947Z,22.42
2022-12-13T22:02:11.782Z,23.38
2022-12-13T22:04:51.388Z,23.17
2022-12-13T22:07:21.192Z,23.35
2022-12-13T22:09:48.237Z,22.93
2022-12-13T22:12:40.665Z,25.08
2022-12-13T22:15:09.899Z,24.00
2022-12-13T22:17:36.996Z,24.13
2022-12-13T22:20:09.348Z,20.90
2022-12-13T22:22:40.475Z,23.58
2022-12-13T22:25:07.757Z,23.30
2022-12-13T22:27:34.316Z,25.17
2022-12-13T22:30:00.945Z,24.48
2022-12-13T22:32:30.431Z,21.15
2022-12-13T22:34:57.060Z,22.63
2022-12-13T22:37:24.048Z,25.05
2022-12-13T22:39:50.769Z,23.50
2022-12-13T22:42:18.320Z,25.45
2022-12-13T22:44:45.468Z,25.00
2022-12-13T22:47:11.934Z,24.58
2022-12-13T22:49:38.471Z,25.05
2022-12-13T22:52:05.259Z,22.17
2022-12-13T22:54:31.792Z,20.48
2022-12-13T22:56:58.328Z,24.58
2022-12-13T22:59:24.790Z,24.35
2022-12-13T23:01:56.668Z,26.67
2022-12-13T23:04:28.094Z,26.75
2022-12-13T23:06:54.564Z,24.20
2022-12-13T23:09:24.165Z,22.60
2022-12-13T23:12:11.326Z,25.30
2022-12-13T23:14:37.816Z,24.20
2022-12-13T23:17:04.538Z,26.38
2022-12-13T23:19:50.520Z,27.23
2022-12-13T23:22:17.820Z,25.50
2022-12-13T23:24:44.310Z,24.52
2022-12-13T23:27:10.795Z,25.25
2022-12-13T23:29:37.352Z,26.08
2022-12-13T23:32:03.924Z,26.35
2022-12-13T23:34:30.694Z,25.83
2022-12-13T23:36:57.165Z,25.20
2022-12-13T23:39:23.868Z,27.60
2022-12-13T23:41:50.428Z,26.10
2022-12-13T23:44:16.899Z,28.08
2022-12-13T23:46:48.137Z,23.70
2022-12-13T23:49:15.952Z,26.42
2022-12-13T23:51:42.546Z,23.08
2022-12-13T23:54:11.765Z,24.40
2022-12-13T23:56:38.256Z,25.63
2022-12-13T23:59:04.758Z,20.85
